Time;durP1;ratioP1;P1;durP2;ratioP2;P2;SDS_P1;SDS_P2;PMS_P1;PMS_P2;Temp;Humidity;BMP_temperature;BMP_pressure;BME280_temperature;BME280_humidity;BME280_pressure;Samples;Min_cycle;Max_cycle;Signal;HPM_P1;HPM_P2
2022/01/16 00:01:43;;;;;;;11.65;3.78;;;21.40;25.50;;;;;;5050159;28;20069;-62
2022/01/16 00:04:06;;;;;;;8.00;2.85;;;21.40;25.60;;;;;;5052278;28;20090;-62
2022/01/16 00:06:38;;;;;;;8.27;3.45;;;21.40;25.50;;;;;;5066422;28;20093;-62
2022/01/16 00:09:06;;;;;;;13.55;2.92;;;21.50;25.70;;;;;;5050299;28;20435;-64
2022/01/16 00:11:33;;;;;;;7.82;2.63;;;22.00;29.70;;;;;;5048896;28;20510;-62
2022/01/16 00:13:59;;;;;;;8.18;2.97;;;21.30;25.60;;;;;;5067148;28;20073;-62
2022/01/16 00:16:26;;;;;;;15.20;3.33;;;21.40;26.20;;;;;;5049726;28;20716;-61
2022/01/16 00:18:52;;;;;;;37.53;4.85;;;21.40;25.90;;;;;;5066427;28;20108;-59
2022/01/16 00:21:27;;;;;;;17.27;4.20;;;21.40;25.90;;;;;;5050027;28;20496;-63
2022/01/16 00:23:54;;;;;;;26.15;3.75;;;21.40;25.80;;;;;;5049746;28;20065;-61
2022/01/16 00:26:22;;;;;;;36.58;4.65;;;21.30;26.00;;;;;;5049198;28;20139;-62
2022/01/16 00:28:50;;;;;;;14.75;3.55;;;21.30;26.10;;;;;;5066037;28;20088;-61
2022/01/16 00:31:18;;;;;;;12.75;2.97;;;21.20;25.90;;;;;;5066265;28;20094;-61
2022/01/16 00:33:45;;;;;;;12.85;2.92;;;21.20;26.10;;;;;;5050862;28;20105;-59
2022/01/16 00:36:17;;;;;;;13.38;2.70;;;21.10;25.80;;;;;;5050171;28;20082;-63
2022/01/16 00:38:45;;;;;;;20.02;3.15;;;21.10;26.00;;;;;;5053259;28;20430;-60
2022/01/16 00:41:12;;;;;;;16.92;3.25;;;21.00;26.10;;;;;;5066599;28;20066;-61
2022/01/16 00:43:39;;;;;;;21.90;4.15;;;21.00;26.30;;;;;;5066156;28;20068;-62
2022/01/16 00:46:10;;;;;;;11.02;3.40;;;20.90;26.60;;;;;;5072321;28;20073;-60
2022/01/16 00:48:37;;;;;;;17.15;4.20;;;20.80;26.50;;;;;;5050331;28;20089;-61
2022/01/16 00:51:03;;;;;;;18.20;4.78;;;20.80;26.60;;;;;;5070918;28;20079;-60
2022/01/16 00:53:29;;;;;;;13.13;4.72;;;20.70;26.50;;;;;;5050571;28;20127;-60
2022/01/16 00:55:56;;;;;;;25.65;7.50;;;20.60;26.90;;;;;;5065690;28;20479;-62
2022/01/16 00:58:22;;;;;;;20.92;7.53;;;20.50;26.80;;;;;;5064370;28;20454;-62
2022/01/16 01:00:49;;;;;;;19.52;7.35;;;20.50;27.60;;;;;;5066272;28;20073;-62
2022/01/16 01:03:16;;;;;;;24.85;6.78;;;20.40;28.20;;;;;;5066631;28;20174;-60
2022/01/16 01:05:43;;;;;;;20.83;6.30;;;20.30;28.00;;;;;;5050539;28;20081;-61
2022/01/16 01:08:10;;;;;;;17.73;5.53;;;20.20;27.90;;;;;;5065839;28;20070;-61
2022/01/16 01:10:39;;;;;;;19.05;5.28;;;20.20;28.30;;;;;;5049189;28;20101;-60
2022/01/16 01:15:58;;;;;;;26.52;6.57;;;19.90;29.00;;;;;;5048375;28;20180;-61
2022/01/16 01:18:25;;;;;;;25.00;7.65;;;19.80;29.20;;;;;;5065325;28;20073;-60
2022/01/16 01:20:52;;;;;;;21.75;10.40;;;19.70;29.60;;;;;;5063629;28;20078;-59
2022/01/16 01:23:19;;;;;;;27.75;10.93;;;19.60;29.60;;;;;;5049524;28;20431;-61
2022/01/16 01:25:46;;;;;;;29.55;11.45;;;19.50;36.90;;;;;;5048908;28;20156;-60
2022/01/16 01:28:13;;;;;;;39.92;12.15;;;19.40;30.40;;;;;;5050993;28;20080;-63
2022/01/16 01:30:41;;;;;;;41.15;11.27;;;19.30;30.30;;;;;;5047812;28;20095;-61
2022/01/16 01:33:08;;;;;;;23.98;10.38;;;19.10;30.90;;;;;;5064175;28;20171;-62
2022/01/16 01:35:38;;;;;;;40.13;10.65;;;19.10;31.80;;;;;;5049484;28;20244;-61
2022/01/16 01:38:06;;;;;;;42.05;11.60;;;19.00;32.50;;;;;;5048205;28;20476;-61
2022/01/16 01:40:34;;;;;;;38.08;11.00;;;18.90;32.80;;;;;;5049422;28;20527;-61
2022/01/16 01:51:09;;;;;;;27.83;9.77;;;18.40;33.40;;;;;;5049488;28;20100;-60
2022/01/16 01:53:40;;;;;;;30.75;9.60;;;18.30;33.50;;;;;;5048914;28;20152;-62
2022/01/16 01:56:09;;;;;;;35.80;10.80;;;18.20;33.70;;;;;;5064837;28;20170;-61
2022/01/16 01:58:35;;;;;;;37.63;11.05;;;18.10;34.00;;;;;;5030036;28;20080;-62
2022/01/16 02:01:03;;;;;;;34.25;12.32;;;18.10;34.80;;;;;;5048537;28;20478;-63
2022/01/16 02:05:56;;;;;;;41.20;13.38;;;17.90;35.00;;;;;;5048722;28;20073;-62
2022/01/16 02:08:23;;;;;;;54.20;14.55;;;17.90;35.30;;;;;;5046216;28;20539;-63
2022/01/16 02:10:49;;;;;;;;;;;17.80;35.90;;;;;;5065239;28;20141;-62
2022/01/16 02:13:23;;;;;;;;;;;17.80;35.80;;;;;;5048919;28;19957;-62
2022/01/16 02:27:59;;;;;;;;;;;17.70;36.00;;;;;;5049142;28;20004;-61
2022/01/16 02:34:40;;;;;;;;;;;17.50;37.20;;;;;;5049178;28;20087;-60
2022/01/16 02:37:13;;;;;;;;;;;17.40;36.50;;;;;;5064202;28;19975;-60
2022/01/16 02:39:42;;;;;;;;;;;17.20;36.30;;;;;;5050265;28;20391;-62
2022/01/16 02:42:10;;;;;;;;;;;17.10;36.40;;;;;;5047805;28;19957;-60
2022/01/16 02:44:47;;;;;;;;;;;17.10;36.80;;;;;;5048242;28;20970;-60
2022/01/16 02:47:17;;;;;;;;;;;17.00;37.70;;;;;;5047947;28;20071;-62
2022/01/16 02:49:47;;;;;;;;;;;17.00;37.40;;;;;;5047334;28;20401;-62
2022/01/16 02:52:14;;;;;;;;;;;16.80;37.20;;;;;;5047225;28;19996;-60
2022/01/16 02:54:41;;;;;;;;;;;16.80;37.30;;;;;;5049218;28;20411;-60
2022/01/16 02:57:08;;;;;;;;;;;16.70;37.80;;;;;;5048792;28;20002;-60
2022/01/16 02:59:35;;;;;;;;;;;16.70;38.20;;;;;;5049789;28;20778;-60
2022/01/16 03:02:01;;;;;;;;;;;16.50;38.50;;;;;;5053486;28;19987;-60
2022/01/16 03:04:28;;;;;;;;;;;16.50;38.70;;;;;;5063150;28;20000;-61
2022/01/16 03:06:55;;;;;;;;;;;16.40;38.80;;;;;;5049975;28;20187;-60
2022/01/16 03:09:22;;;;;;;;;;;16.40;39.10;;;;;;5049159;28;19996;-60
2022/01/16 03:11:49;;;;;;;;;;;16.30;39.20;;;;;;5064459;28;19957;-61
2022/01/16 03:14:17;;;;;;;;;;;16.20;39.40;;;;;;5048021;28;19988;-63
2022/01/16 03:16:46;;;;;;;;;;;16.20;39.50;;;;;;5047984;28;19961;-61
2022/01/16 03:22:03;;;;;;;;;;;16.00;39.80;;;;;;5052843;28;19999;-61
2022/01/16 03:24:34;;;;;;;;;;;16.00;40.10;;;;;;5052274;28;19953;-63
2022/01/16 03:27:02;;;;;;;;;;;15.90;40.30;;;;;;5051557;28;19957;-60
2022/01/16 03:29:28;;;;;;;;;;;15.80;40.30;;;;;;5052320;28;19973;-61
2022/01/16 03:31:55;;;;;;;;;;;15.80;40.10;;;;;;5052621;28;20000;-63
2022/01/16 03:34:21;;;;;;;;;;;15.70;40.30;;;;;;5068865;28;20007;-61
2022/01/16 03:36:47;;;;;;;;;;;15.70;40.70;;;;;;5051768;28;19977;-59
2022/01/16 03:39:13;;;;;;;;;;;15.70;41.00;;;;;;5050318;28;20381;-62
2022/01/16 03:41:40;;;;;;;;;;;15.70;41.30;;;;;;5051569;28;19961;-61
2022/01/16 03:44:06;;;;;;;;;;;15.60;41.30;;;;;;5050751;28;20058;-61
2022/01/16 03:46:36;;;;;;;;;;;15.50;41.20;;;;;;5051630;28;20419;-60
2022/01/16 03:49:04;;;;;;;;;;;15.50;41.60;;;;;;5050263;28;19988;-60
2022/01/16 03:51:30;;;;;;;;;;;15.50;41.80;;;;;;5050747;28;19957;-62
2022/01/16 03:53:56;;;;;;;;;;;15.40;41.70;;;;;;5051975;28;19957;-63
2022/01/16 03:56:22;;;;;;;;;;;15.40;41.80;;;;;;5050358;28;19980;-61
2022/01/16 03:58:48;;;;;;;;;;;15.30;42.10;;;;;;5050795;28;19961;-60
2022/01/16 04:01:14;;;;;;;;;;;15.30;42.50;;;;;;5050912;28;20027;-61
2022/01/16 04:03:40;;;;;;;;;;;15.20;42.70;;;;;;5050620;28;19980;-63
2022/01/16 04:06:06;;;;;;;;;;;15.20;43.00;;;;;;5054194;28;20473;-60
2022/01/16 04:08:32;;;;;;;;;;;15.10;43.10;;;;;;5070563;28;20024;-61
2022/01/16 04:10:59;;;;;;;;;;;15.10;43.20;;;;;;5051002;28;20023;-61
2022/01/16 04:13:26;;;;;;;;;;;15.00;43.30;;;;;;5048941;28;19957;-61
2022/01/16 04:15:52;;;;;;;;;;;15.00;43.30;;;;;;5052876;28;20080;-61
2022/01/16 04:18:18;;;;;;;;;;;15.00;43.50;;;;;;5052282;28;19972;-59
2022/01/16 04:20:44;;;;;;;;;;;14.90;43.60;;;;;;5050796;28;20018;-61
2022/01/16 04:23:10;;;;;;;;;;;14.80;43.80;;;;;;5051726;28;20031;-60
2022/01/16 04:25:36;;;;;;;;;;;14.80;44.10;;;;;;5051337;28;19963;-60
2022/01/16 04:28:03;;;;;;;;;;;14.80;44.30;;;;;;5051906;28;20031;-60
2022/01/16 04:30:29;;;;;;;;;;;14.80;44.70;;;;;;5053632;28;19957;-60
2022/01/16 04:32:55;;;;;;;;;;;14.80;44.70;;;;;;5051726;28;20065;-62
2022/01/16 04:35:21;;;;;;;;;;;14.80;44.70;;;;;;5049378;28;19989;-61
2022/01/16 04:37:47;;;;;;;;;;;14.80;45.00;;;;;;5033898;28;20473;-61
2022/01/16 04:40:14;;;;;;;;;;;14.70;44.20;;;;;;5050702;28;19957;-60
2022/01/16 04:45:24;;;;;;;;;;;14.60;44.50;;;;;;5051176;28;20311;-60
2022/01/16 04:47:51;;;;;;;;;;;14.50;44.80;;;;;;5033945;28;19957;-63
2022/01/16 04:50:17;;;;;;;;;;;14.60;45.10;;;;;;5050104;28;19957;-61
2022/01/16 04:52:45;;;;;;;;;;;14.50;45.30;;;;;;5048991;28;19957;-60
2022/01/16 04:55:11;;;;;;;;;;;14.50;45.50;;;;;;5049981;28;19973;-61
2022/01/16 04:57:38;;;;;;;;;;;14.50;45.60;;;;;;5066303;28;19988;-59
2022/01/16 05:00:06;;;;;;;;;;;14.50;45.80;;;;;;5034065;28;20055;-63
2022/01/16 05:02:33;;;;;;;;;;;14.40;46.00;;;;;;5053767;28;20335;-61
2022/01/16 05:04:59;;;;;;;;;;;14.30;46.10;;;;;;5050212;28;19965;-62
2022/01/16 05:07:25;;;;;;;;;;;14.20;46.30;;;;;;5051119;28;19973;-61
2022/01/16 05:09:51;;;;;;;;;;;14.20;46.60;;;;;;5051076;28;20503;-62
2022/01/16 05:12:26;;;;;;;;;;;14.20;46.70;;;;;;5049564;28;19957;-60
2022/01/16 05:17:36;;;;;;;;;;;14.20;46.60;;;;;;5050999;28;19999;-60
2022/01/16 05:20:03;;;;;;;;;;;14.20;46.80;;;;;;5052400;28;20489;-61
2022/01/16 05:22:29;;;;;;;;;;;14.10;46.60;;;;;;5048937;28;19981;-61
2022/01/16 05:24:55;;;;;;;;;;;14.20;46.90;;;;;;5052666;28;20007;-63
2022/01/16 05:27:21;;;;;;;;;;;14.10;46.90;;;;;;5049105;28;19968;-62
2022/01/16 05:29:47;;;;;;;;;;;14.00;46.90;;;;;;5052766;28;19961;-61
2022/01/16 05:32:16;;;;;;;;;;;14.00;46.90;;;;;;5050498;28;19961;-60
2022/01/16 05:34:42;;;;;;;;;;;14.00;46.80;;;;;;5050575;28;20466;-60
2022/01/16 05:37:08;;;;;;;;;;;14.00;47.00;;;;;;5052447;28;19961;-61
2022/01/16 05:39:34;;;;;;;;;;;13.90;47.00;;;;;;5049158;28;19957;-61
2022/01/16 05:42:01;;;;;;;;;;;13.90;47.10;;;;;;5049984;28;19964;-62
2022/01/16 05:44:27;;;;;;;;;;;13.90;47.00;;;;;;5048000;28;19965;-60
2022/01/16 05:46:53;;;;;;;;;;;13.80;47.10;;;;;;5048775;28;19961;-61
2022/01/16 05:49:19;;;;;;;;;;;13.80;47.30;;;;;;5065320;28;20342;-63
2022/01/16 05:51:45;;;;;;;;;;;13.80;47.50;;;;;;5068191;28;20419;-63
2022/01/16 05:54:11;;;;;;;;;;;13.80;47.60;;;;;;5049552;28;20115;-61
2022/01/16 05:56:37;;;;;;;;;;;13.70;47.70;;;;;;5047425;28;20475;-59
2022/01/16 05:59:03;;;;;;;;;;;13.70;47.80;;;;;;5048743;28;20419;-61
2022/01/16 06:04:03;;;;;;;74.00;22.70;;;13.80;51.80;;;;;;5107048;27;20473;-60
2022/01/16 06:06:29;;;;;;;71.35;22.08;;;13.70;47.50;;;;;;5105345;28;20608;-60
2022/01/16 06:08:56;;;;;;;64.45;22.05;;;13.70;47.60;;;;;;5104937;28;20096;-62
2022/01/16 06:11:22;;;;;;;88.75;27.92;;;13.60;47.70;;;;;;5104772;28;20105;-60
2022/01/16 06:13:48;;;;;;;;;;;13.60;47.70;;;;;;5105008;28;20466;-62
2022/01/16 06:16:15;;;;;;;80.00;30.65;;;13.60;47.70;;;;;;5106023;28;19963;-63
2022/01/16 06:18:41;;;;;;;;;;;13.60;48.10;;;;;;5105876;28;20080;-63
2022/01/16 06:21:07;;;;;;;78.57;27.85;;;13.60;48.40;;;;;;5105545;28;19957;-61
2022/01/16 06:23:33;;;;;;;;;;;13.60;48.20;;;;;;5105479;28;20085;-61
2022/01/16 06:25:59;;;;;;;72.28;26.90;;;13.50;48.10;;;;;;5106355;28;19953;-61
2022/01/16 06:28:31;;;;;;;76.82;26.45;;;13.50;48.30;;;;;;5104992;28;20531;-62
2022/01/16 06:30:59;;;;;;;69.68;24.90;;;13.50;48.40;;;;;;5106113;28;20103;-61
2022/01/16 06:33:26;;;;;;;74.32;23.90;;;13.50;48.30;;;;;;5104924;28;20104;-60
2022/01/16 06:35:52;;;;;;;;;;;13.40;48.30;;;;;;5105693;28;20169;-61
2022/01/16 06:38:18;;;;;;;80.60;25.63;;;13.30;48.40;;;;;;5104003;28;20081;-60
2022/01/16 06:40:45;;;;;;;66.70;24.48;;;13.30;48.60;;;;;;5104074;28;20073;-61
2022/01/16 06:43:12;;;;;;;78.55;25.60;;;13.30;48.70;;;;;;5104733;28;20183;-63
2022/01/16 06:45:38;;;;;;;76.70;25.48;;;13.30;48.90;;;;;;5104875;28;20076;-62
2022/01/16 06:48:05;;;;;;;59.95;24.52;;;13.30;49.20;;;;;;5103945;28;20072;-61
2022/01/16 06:50:31;;;;;;;;;;;13.20;49.20;;;;;;5105511;28;20091;-61
2022/01/16 06:52:57;;;;;;;68.70;22.05;;;13.20;49.10;;;;;;5104038;28;19956;-61
2022/01/16 06:55:23;;;;;;;60.80;21.83;;;13.20;49.10;;;;;;5105229;28;20096;-62
2022/01/16 06:57:49;;;;;;;;;;;13.20;49.20;;;;;;5104512;28;20527;-61
2022/01/16 07:00:16;;;;;;;61.72;21.45;;;13.10;49.00;;;;;;5104758;28;19963;-60
2022/01/16 07:02:42;;;;;;;;;;;13.10;49.00;;;;;;5104217;28;20108;-61
2022/01/16 07:05:09;;;;;;;68.40;21.02;;;13.10;48.90;;;;;;5101647;28;20013;-60
2022/01/16 07:07:35;;;;;;;57.22;19.70;;;13.10;48.80;;;;;;5100953;28;20065;-60
2022/01/16 07:10:02;;;;;;;;;;;13.10;48.20;;;;;;5103813;28;20069;-59
2022/01/16 07:12:28;;;;;;;54.47;20.65;;;13.10;47.90;;;;;;5102124;28;20055;-60
2022/01/16 07:14:54;;;;;;;53.10;19.88;;;13.10;47.50;;;;;;5090664;28;20541;-62
2022/01/16 07:17:20;;;;;;;;;;;13.10;47.40;;;;;;5088638;28;20085;-60
2022/01/16 07:19:47;;;;;;;49.72;18.17;;;13.10;47.40;;;;;;5088027;28;19976;-60
2022/01/16 07:22:13;;;;;;;56.40;18.42;;;13.10;46.90;;;;;;5087291;28;20093;-60
2022/01/16 07:24:39;;;;;;;;;;;13.10;46.70;;;;;;5089663;28;20073;-60
2022/01/16 07:27:06;;;;;;;51.95;17.33;;;13.10;46.90;;;;;;5087918;28;19956;-60
2022/01/16 07:29:33;;;;;;;52.47;17.30;;;13.00;47.00;;;;;;5088726;28;20072;-60
2022/01/16 07:32:00;;;;;;;49.35;16.67;;;13.00;47.00;;;;;;5088110;28;20090;-60
2022/01/16 07:34:26;;;;;;;;;;;13.10;46.20;;;;;;5088675;28;20480;-60
2022/01/16 07:36:52;;;;;;;44.65;13.20;;;13.10;44.10;;;;;;5089757;28;19964;-61
2022/01/16 07:39:18;;;;;;;33.35;11.02;;;13.20;45.20;;;;;;5087972;28;20199;-60
2022/01/16 07:41:45;;;;;;;32.30;10.57;;;13.20;43.30;;;;;;5087802;28;20530;-61
2022/01/16 07:44:11;;;;;;;;;;;13.20;43.00;;;;;;5090372;28;20093;-62
2022/01/16 07:46:37;;;;;;;33.13;9.23;;;13.30;43.30;;;;;;5088349;28;19956;-62
2022/01/16 07:49:04;;;;;;;38.35;8.85;;;13.20;42.60;;;;;;5087166;28;20775;-62
2022/01/16 07:51:31;;;;;;;;;;;13.30;42.30;;;;;;5089082;28;20439;-60
2022/01/16 07:53:59;;;;;;;33.53;7.60;;;13.30;42.20;;;;;;5088872;28;20030;-61
2022/01/16 07:56:25;;;;;;;26.52;7.47;;;13.30;42.00;;;;;;5088423;28;20078;-62
2022/01/16 07:58:51;;;;;;;;;;;13.30;42.00;;;;;;5088892;28;20079;-63
2022/01/16 08:01:17;;;;;;;20.65;7.50;;;13.30;41.60;;;;;;5088564;28;19961;-60
2022/01/16 08:03:43;;;;;;;;;;;13.30;41.30;;;;;;5087962;28;20116;-61
2022/01/16 08:06:13;;;;;;;24.25;7.53;;;13.30;41.10;;;;;;5088813;28;19976;-63
2022/01/16 08:08:39;;;;;;;30.85;7.88;;;13.20;41.40;;;;;;5085723;28;20073;-61
2022/01/16 08:11:08;;;;;;;30.70;8.43;;;13.20;41.60;;;;;;5089001;28;20101;-60
2022/01/16 08:13:36;;;;;;;29.00;8.60;;;13.20;41.40;;;;;;5088553;28;20077;-62
2022/01/16 08:16:06;;;;;;;26.20;8.57;;;13.30;41.40;;;;;;5089179;28;20588;-61
2022/01/16 08:18:33;;;;;;;38.20;10.00;;;13.30;42.10;;;;;;5085169;28;20085;-65
2022/01/16 08:21:00;;;;;;;33.22;9.40;;;13.30;43.00;;;;;;5085710;28;20167;-65
2022/01/16 08:23:27;;;;;;;33.33;10.93;;;13.30;43.00;;;;;;5086461;28;20092;-65
2022/01/16 08:25:53;;;;;;;29.48;10.38;;;13.30;42.90;;;;;;5087328;28;20168;-65
2022/01/16 08:28:20;;;;;;;41.03;10.45;;;13.40;43.20;;;;;;5085804;28;20415;-61
2022/01/16 08:30:46;;;;;;;38.47;11.50;;;13.40;43.00;;;;;;5086317;28;20104;-61
2022/01/16 08:33:12;;;;;;;;;;;13.30;42.60;;;;;;5087524;28;20119;-61
2022/01/16 08:35:39;;;;;;;35.25;8.90;;;13.30;42.10;;;;;;5086613;28;20012;-61
2022/01/16 08:38:05;;;;;;;23.20;8.27;;;13.30;42.30;;;;;;5086789;28;20110;-64
2022/01/16 08:40:31;;;;;;;;;;;13.30;42.20;;;;;;5088271;28;20073;-61
2022/01/16 08:42:58;;;;;;;22.20;5.90;;;13.40;42.20;;;;;;5070677;28;19972;-60
2022/01/16 08:45:25;;;;;;;23.33;5.32;;;13.30;42.10;;;;;;5089468;28;20077;-60
2022/01/16 08:47:51;;;;;;;;;;;13.30;41.40;;;;;;5086942;28;20073;-61
2022/01/16 08:50:17;;;;;;;17.83;4.32;;;13.30;40.90;;;;;;5086788;28;19957;-61
2022/01/16 08:52:43;;;;;;;;;;;13.30;40.50;;;;;;5071226;28;20083;-62
2022/01/16 08:55:11;;;;;;;11.40;2.90;;;13.30;40.60;;;;;;5086019;28;20336;-61
2022/01/16 08:57:38;;;;;;;6.03;2.05;;;13.30;39.30;;;;;;5087104;28;20202;-61
2022/01/16 09:00:09;;;;;;;9.95;1.98;;;13.30;39.70;;;;;;5087066;28;20105;-61
2022/01/16 09:02:36;;;;;;;13.63;1.90;;;13.30;39.20;;;;;;5086473;28;20158;-62
2022/01/16 09:05:03;;;;;;;8.02;1.77;;;13.30;39.60;;;;;;5082869;28;20072;-61
2022/01/16 09:07:30;;;;;;;11.00;2.15;;;13.30;38.80;;;;;;5086439;28;20072;-61
2022/01/16 09:09:57;;;;;;;6.28;2.00;;;13.20;38.70;;;;;;5085965;28;20184;-61
2022/01/16 09:12:24;;;;;;;9.57;1.75;;;13.20;38.80;;;;;;5085252;28;20573;-60
2022/01/16 09:14:51;;;;;;;10.93;1.52;;;13.20;38.90;;;;;;5088459;28;20100;-61
2022/01/16 09:17:17;;;;;;;10.38;1.98;;;13.20;39.00;;;;;;5085914;28;20081;-60
2022/01/16 09:19:44;;;;;;;11.43;1.83;;;13.20;39.30;;;;;;5086227;28;20099;-60
2022/01/16 09:22:10;;;;;;;;;;;13.20;39.50;;;;;;5085499;28;20454;-60
2022/01/16 09:24:36;;;;;;;16.50;2.55;;;13.20;39.60;;;;;;5087933;28;20006;-60
2022/01/16 09:27:03;;;;;;;16.55;2.30;;;13.20;39.90;;;;;;5086809;28;20069;-59
2022/01/16 09:29:29;;;;;;;17.10;2.35;;;13.20;40.00;;;;;;5086930;28;20076;-62
2022/01/16 09:31:55;;;;;;;;;;;13.10;39.80;;;;;;5088022;28;20565;-61
2022/01/16 09:34:21;;;;;;;16.15;2.60;;;13.10;39.90;;;;;;5086341;28;20037;-63
2022/01/16 09:36:48;;;;;;;18.02;2.90;;;13.10;39.90;;;;;;5085114;28;20104;-63
2022/01/16 09:39:14;;;;;;;;;;;13.10;39.90;;;;;;5086029;28;20493;-63
2022/01/16 09:41:42;;;;;;;18.75;2.53;;;13.10;39.80;;;;;;5085639;28;20051;-61
2022/01/16 09:44:09;;;;;;;19.70;2.65;;;13.20;39.90;;;;;;5085674;28;20135;-61
2022/01/16 09:46:35;;;;;;;19.88;3.08;;;13.20;40.70;;;;;;5085997;28;20084;-61
2022/01/16 09:49:02;;;;;;;;;;;13.20;40.50;;;;;;5084475;28;20123;-60
2022/01/16 09:51:30;;;;;;;17.75;3.42;;;13.20;40.20;;;;;;5085434;28;19957;-60
2022/01/16 09:53:58;;;;;;;14.90;3.15;;;13.20;40.60;;;;;;5088291;28;20116;-61
2022/01/16 09:56:24;;;;;;;20.73;3.00;;;13.20;40.50;;;;;;5084739;28;20163;-61
2022/01/16 09:58:51;;;;;;;15.90;2.65;;;13.10;40.50;;;;;;5084971;28;20453;-62
2022/01/16 10:01:18;;;;;;;23.92;3.65;;;13.20;40.80;;;;;;5069976;28;20992;-61
2022/01/16 10:03:46;;;;;;;15.18;3.17;;;13.20;41.00;;;;;;5085231;28;20104;-61
2022/01/16 10:06:12;;;;;;;17.35;2.50;;;13.30;41.30;;;;;;5087394;28;20526;-60
2022/01/16 10:08:39;;;;;;;;;;;13.30;41.00;;;;;;5086986;28;20072;-61
2022/01/16 10:11:24;;;;;;;19.02;2.67;;;13.30;40.90;;;;;;5086797;28;19957;-61
2022/01/16 10:14:15;;;;;;;13.52;2.60;;;13.30;41.10;;;;;;5085401;28;20441;-60
2022/01/16 10:16:43;;;;;;;15.95;2.88;;;13.30;40.90;;;;;;5084668;28;20468;-61
2022/01/16 10:19:31;;;;;;;22.73;3.10;;;13.30;40.60;;;;;;5087184;28;20083;-61
2022/01/16 10:22:12;;;;;;;17.70;2.97;;;13.30;41.60;;;;;;5087240;28;20207;-61
2022/01/16 10:24:40;;;;;;;16.58;3.05;;;13.40;42.70;;;;;;5087419;28;20531;-61
2022/01/16 10:27:12;;;;;;;23.25;3.90;;;13.50;42.80;;;;;;5086195;28;20090;-61
2022/01/16 10:29:40;;;;;;;26.10;3.17;;;13.50;42.40;;;;;;5084689;28;20415;-60
2022/01/16 10:32:27;;;;;;;13.07;3.20;;;13.50;41.90;;;;;;5088755;28;20083;-60
2022/01/16 10:35:27;;;;;;;13.77;2.65;;;13.50;41.10;;;;;;5084587;28;20472;-60
2022/01/16 10:37:57;;;;;;;18.70;2.75;;;13.50;40.50;;;;;;5084419;28;20240;-62
2022/01/16 10:40:33;;;;;;;13.15;1.95;;;13.50;41.00;;;;;;5085574;28;20068;-60
2022/01/16 10:43:05;;;;;;;12.52;1.67;;;13.60;40.30;;;;;;5084715;28;20088;-61
2022/01/16 10:45:33;;;;;;;12.68;1.90;;;13.70;39.50;;;;;;5084082;28;20068;-61
2022/01/16 10:48:01;;;;;;;8.55;2.22;;;13.70;39.10;;;;;;5069592;28;20213;-61
2022/01/16 10:50:35;;;;;;;12.38;1.83;;;13.80;39.60;;;;;;5088715;28;20614;-62
2022/01/16 10:53:08;;;;;;;17.20;2.45;;;13.80;39.70;;;;;;5091866;28;20077;-63
2022/01/16 10:55:51;;;;;;;8.45;1.80;;;13.90;39.30;;;;;;5089832;28;20091;-63
2022/01/16 10:58:41;;;;;;;7.45;1.88;;;13.90;38.60;;;;;;5087788;28;20614;-61
2022/01/16 11:01:16;;;;;;;8.20;1.98;;;14.00;38.50;;;;;;5088980;28;20137;-62
2022/01/16 11:03:49;;;;;;;7.63;1.40;;;14.00;38.40;;;;;;5087738;28;20100;-64
2022/01/16 11:06:18;;;;;;;5.65;1.50;;;14.10;38.40;;;;;;5089517;28;20089;-61
2022/01/16 11:08:58;;;;;;;11.18;2.55;;;14.10;38.40;;;;;;5088130;28;20121;-60
2022/01/16 11:11:25;;;;;;;12.98;2.20;;;14.20;38.40;;;;;;5088620;28;20065;-62
2022/01/16 11:13:51;;;;;;;13.02;2.55;;;14.20;38.10;;;;;;5088516;28;20085;-61
2022/01/16 11:16:18;;;;;;;11.68;2.40;;;14.30;37.90;;;;;;5089588;28;20096;-62
2022/01/16 11:18:51;;;;;;;9.02;1.85;;;14.30;37.70;;;;;;5088711;28;20077;-62
2022/01/16 11:21:30;;;;;;;14.80;2.47;;;14.30;37.50;;;;;;5088154;28;20089;-60
2022/01/16 11:24:24;;;;;;;11.65;2.40;;;14.40;38.40;;;;;;5086888;28;20089;-60
2022/01/16 11:26:50;;;;;;;16.27;2.58;;;14.40;37.10;;;;;;5089185;28;20092;-61
2022/01/16 11:29:16;;;;;;;9.98;2.58;;;14.40;37.20;;;;;;5086042;28;20069;-61
2022/01/16 11:31:43;;;;;;;;;;;14.40;36.80;;;;;;5089823;28;20072;-63
2022/01/16 11:34:11;;;;;;;7.72;2.20;;;14.40;36.40;;;;;;5086933;28;20010;-61
2022/01/16 11:36:37;;;;;;;12.27;2.42;;;14.40;36.30;;;;;;5088012;28;20075;-61
2022/01/16 11:39:10;;;;;;;9.23;2.80;;;14.40;36.40;;;;;;5087634;28;20069;-61
2022/01/16 11:41:50;;;;;;;10.18;2.53;;;14.40;36.00;;;;;;5088575;28;20081;-61
2022/01/16 11:44:24;;;;;;;8.05;2.38;;;14.40;36.20;;;;;;5086631;28;20065;-59
2022/01/16 11:46:55;;;;;;;12.30;2.60;;;14.40;36.00;;;;;;5085505;28;20164;-63
2022/01/16 11:49:42;;;;;;;8.30;2.20;;;14.50;35.80;;;;;;5088388;28;20159;-59
2022/01/16 11:52:15;;;;;;;6.88;2.45;;;14.50;36.00;;;;;;5091576;28;20782;-60
2022/01/16 11:54:46;;;;;;;9.73;2.42;;;14.50;35.80;;;;;;5088358;28;20088;-60
2022/01/16 11:57:18;;;;;;;13.75;2.45;;;14.50;35.80;;;;;;5086467;28;21239;-59
2022/01/16 11:59:47;;;;;;;10.07;2.50;;;14.50;35.90;;;;;;5087860;28;20069;-61
2022/01/16 12:02:14;;;;;;;11.65;2.97;;;14.20;36.60;;;;;;5088220;28;20113;-62
2022/01/16 12:04:44;;;;;;;10.13;2.55;;;14.50;36.00;;;;;;5086948;28;20068;-60
2022/01/16 12:07:13;;;;;;;7.50;2.30;;;14.50;36.20;;;;;;5089988;28;20535;-60
2022/01/16 12:12:15;;;;;;;20.42;3.13;;;14.50;36.50;;;;;;5087402;28;20565;-60
2022/01/16 12:15:05;;;;;;;18.08;2.72;;;14.50;36.60;;;;;;5085104;28;20427;-61
2022/01/16 12:17:32;;;;;;;9.27;3.03;;;14.50;37.00;;;;;;5086295;28;20167;-60
2022/01/16 12:20:25;;;;;;;11.55;3.38;;;14.50;37.70;;;;;;5087245;28;20202;-60
2022/01/16 12:23:05;;;;;;;12.60;3.30;;;14.60;37.00;;;;;;5086475;28;20066;-60
2022/01/16 12:25:51;;;;;;;13.68;3.80;;;14.50;37.00;;;;;;5086091;28;20075;-63
2022/01/16 12:28:25;;;;;;;7.45;3.55;;;14.50;36.80;;;;;;5086964;28;20073;-61
2022/01/16 12:31:06;;;;;;;10.43;3.33;;;14.50;37.90;;;;;;5083473;28;20083;-63
2022/01/16 12:33:47;;;;;;;10.85;3.17;;;14.50;37.60;;;;;;5087780;28;20130;-61
2022/01/16 12:36:32;;;;;;;12.73;3.15;;;14.50;38.40;;;;;;5090081;28;20430;-61
2022/01/16 12:39:06;;;;;;;10.95;3.38;;;14.50;37.90;;;;;;5086638;28;20084;-61
2022/01/16 12:41:37;;;;;;;14.32;3.30;;;14.50;37.90;;;;;;5086603;28;20530;-60
2022/01/16 12:44:06;;;;;;;11.50;3.10;;;14.50;38.10;;;;;;5087294;28;20142;-59
2022/01/16 12:46:33;;;;;;;10.07;3.00;;;14.40;38.10;;;;;;5087609;28;20088;-61
2022/01/16 12:49:06;;;;;;;6.35;2.80;;;14.40;37.30;;;;;;5087098;28;20065;-61
2022/01/16 12:51:34;;;;;;;14.48;3.08;;;14.30;37.20;;;;;;5087273;28;20508;-63
2022/01/16 12:54:15;;;;;;;9.02;2.65;;;14.20;37.90;;;;;;5089204;28;20104;-61
2022/01/16 12:56:45;;;;;;;7.72;2.60;;;14.20;38.80;;;;;;5084477;28;20150;-60
2022/01/16 12:59:16;;;;;;;10.90;2.55;;;14.20;38.80;;;;;;5087678;28;20083;-61
2022/01/16 13:01:51;;;;;;;5.55;2.70;;;14.10;38.90;;;;;;5087763;28;20884;-63
2022/01/16 13:04:24;;;;;;;10.32;2.42;;;13.90;38.90;;;;;;5087495;28;20083;-61
2022/01/16 13:06:51;;;;;;;9.27;2.30;;;13.80;39.10;;;;;;5088082;28;20096;-63
2022/01/16 13:09:17;;;;;;;9.15;2.60;;;13.80;39.20;;;;;;5086046;28;20195;-61
2022/01/16 13:11:52;;;;;;;10.38;2.80;;;13.70;39.30;;;;;;5090734;28;20064;-62
2022/01/16 13:14:25;;;;;;;8.63;2.40;;;13.70;39.70;;;;;;5086262;28;20080;-61
2022/01/16 13:16:57;;;;;;;12.07;2.13;;;13.70;39.80;;;;;;5086617;28;20100;-60
2022/01/16 13:19:28;;;;;;;10.00;3.15;;;13.70;40.20;;;;;;5087485;28;20156;-60
2022/01/16 13:22:11;;;;;;;7.38;1.83;;;13.60;40.20;;;;;;5086561;28;20121;-61
2022/01/16 13:24:44;;;;;;;19.70;2.85;;;13.50;40.60;;;;;;5086158;28;20084;-61
2022/01/16 13:27:23;;;;;;;13.43;2.50;;;13.40;40.90;;;;;;5086704;28;20423;-61
2022/01/16 13:29:52;;;;;;;11.25;2.17;;;13.40;41.40;;;;;;5088484;28;20075;-62
2022/01/16 13:32:27;;;;;;;8.07;2.13;;;13.40;41.30;;;;;;5086070;28;20096;-61
2022/01/16 13:34:55;;;;;;;9.52;2.25;;;13.20;41.20;;;;;;5086391;28;20068;-61
2022/01/16 13:37:29;;;;;;;17.35;2.25;;;13.10;41.40;;;;;;5088567;28;20091;-61
2022/01/16 13:40:02;;;;;;;7.07;2.15;;;13.10;42.00;;;;;;5087289;28;20080;-61
2022/01/16 13:45:32;;;;;;;15.65;2.15;;;13.10;42.10;;;;;;5086445;28;20134;-61
2022/01/16 13:48:12;;;;;;;8.55;2.40;;;13.00;42.20;;;;;;5085310;28;20068;-61
2022/01/16 13:51:01;;;;;;;13.40;2.30;;;13.10;43.20;;;;;;5086167;28;20080;-60
2022/01/16 13:53:34;;;;;;;12.40;2.40;;;12.90;43.80;;;;;;5085788;28;20089;-61
2022/01/16 13:56:04;;;;;;;10.00;2.30;;;12.80;43.50;;;;;;5086246;28;20164;-61
2022/01/16 13:58:44;;;;;;;16.80;2.75;;;12.80;44.20;;;;;;5085511;28;20118;-61
2022/01/16 14:01:15;;;;;;;11.85;2.10;;;12.80;43.80;;;;;;5087820;28;20096;-63
2022/01/16 14:04:03;;;;;;;13.30;2.92;;;12.70;43.40;;;;;;5084290;28;20116;-61